Time;durP1;ratioP1;P1;durP2;ratioP2;P2;SDS_P1;SDS_P2;PMS_P1;PMS_P2;Temp;Humidity;BMP_temperature;BMP_pressure;BME280_temperature;BME280_humidity;BME280_pressure;Samples;Min_cycle;Max_cycle;Signal;HPM_P1;HPM_P2
2022/03/29 00:00:16;;;;;;;10.10;5.90;;;;;;;6.51;58.44;99281.95;214506;1276;142339;-75
2022/03/29 00:05:38;;;;;;;13.10;6.80;;;;;;;6.30;59.26;99284.65;214391;1276;140250;-71
2022/03/29 00:10:41;;;;;;;11.30;7.60;;;;;;;6.17;59.35;99286.05;213295;1276;140370;-72
2022/03/29 00:15:45;;;;;;;12.00;7.50;;;;;;;6.03;59.23;99295.10;214438;1276;141932;-79
2022/03/29 00:21:06;;;;;;;10.80;7.60;;;;;;;5.94;59.78;99286.13;215071;1276;141116;-75
2022/03/29 00:26:08;;;;;;;11.30;7.80;;;;;;;5.82;60.04;99269.91;216018;1277;141514;-76
2022/03/29 00:31:19;;;;;;;13.80;7.60;;;;;;;5.66;59.97;99267.79;213695;1276;139772;-69
2022/03/29 00:36:24;;;;;;;14.30;9.40;;;;;;;5.57;60.39;99271.17;214294;1279;140994;-76
2022/03/29 00:41:27;;;;;;;11.00;7.70;;;;;;;5.51;60.84;99259.39;213694;1277;140618;-75
2022/03/29 00:46:32;;;;;;;10.20;7.20;;;;;;;5.42;60.90;99250.11;213580;1276;139854;-73
2022/03/29 00:51:36;;;;;;;16.80;7.60;;;;;;;5.25;61.06;99252.67;213141;1276;140112;-71
2022/03/29 00:56:39;;;;;;;13.80;8.20;;;;;;;5.09;61.40;99250.54;214245;1276;140017;-74
2022/03/29 01:01:42;;;;;;;9.90;6.50;;;;;;;4.95;61.53;99241.77;213306;1276;139944;-73
2022/03/29 01:06:45;;;;;;;9.30;6.10;;;;;;;4.83;62.00;99237.30;214265;1277;140693;-70
2022/03/29 01:11:48;;;;;;;15.80;6.90;;;;;;;4.73;62.16;99230.04;213102;1276;139833;-70
2022/03/29 01:22:12;;;;;;;11.40;7.80;;;;;;;4.47;62.76;99224.13;213219;1276;141072;-69
2022/03/29 01:27:16;;;;;;;16.30;7.90;;;;;;;4.49;63.32;99232.13;213205;1277;140794;-69
2022/03/29 01:32:19;;;;;;;14.50;8.00;;;;;;;4.48;63.21;99235.25;214092;1276;140805;-78
2022/03/29 01:37:23;;;;;;;18.80;9.90;;;;;;;4.48;63.57;99215.96;214160;1276;140385;-78
2022/03/29 01:42:27;;;;;;;13.90;7.40;;;;;;;4.45;63.71;99221.45;213651;1276;139025;-71
2022/03/29 01:47:30;;;;;;;15.80;7.00;;;;;;;4.44;64.14;99224.70;213894;1276;139625;-70
2022/03/29 01:52:41;;;;;;;12.90;7.80;;;;;;;4.51;64.76;99199.15;213148;1276;139841;-71
2022/03/29 01:57:45;;;;;;;14.00;7.00;;;;;;;4.59;65.02;99209.38;214412;1276;141128;-69
2022/03/29 02:02:49;;;;;;;15.90;10.50;;;;;;;4.65;65.20;99189.77;213990;1277;140661;-72
2022/03/29 02:07:52;;;;;;;11.50;7.90;;;;;;;4.71;65.27;99188.63;213837;1276;140968;-70
2022/03/29 02:12:55;;;;;;;17.30;8.40;;;;;;;4.76;65.10;99198.56;214638;1276;140433;-76
2022/03/29 02:17:59;;;;;;;15.90;8.90;;;;;;;4.76;65.09;99187.17;215016;1277;140151;-78
2022/03/29 02:23:08;;;;;;;20.20;10.60;;;;;;;4.79;64.95;99180.42;214651;1276;140534;-66
2022/03/29 02:28:11;;;;;;;19.40;9.00;;;;;;;4.81;64.99;99174.12;215682;1277;140045;-72
2022/03/29 02:33:15;;;;;;;19.70;9.30;;;;;;;4.78;64.89;99186.89;215583;1277;139609;-74
2022/03/29 02:38:20;;;;;;;14.70;8.80;;;;;;;4.72;64.87;99175.34;214258;1277;138774;-76
2022/03/29 02:43:23;;;;;;;12.10;8.00;;;;;;;4.61;64.96;99173.96;213628;1276;140453;-69
2022/03/29 02:48:26;;;;;;;14.70;8.70;;;;;;;4.51;64.82;99172.40;214464;1276;139225;-69
2022/03/29 02:53:28;;;;;;;17.80;9.30;;;;;;;4.41;64.90;99166.20;213872;1276;139709;-69
2022/03/29 02:58:31;;;;;;;16.50;9.50;;;;;;;4.33;64.96;99174.79;213314;1276;139636;-70
2022/03/29 03:03:34;;;;;;;11.30;7.50;;;;;;;4.29;65.40;99177.33;214737;1277;140853;-79
2022/03/29 03:08:37;;;;;;;13.40;8.20;;;;;;;4.27;65.83;99173.00;214147;1277;139183;-76
2022/03/29 03:13:40;;;;;;;16.40;9.20;;;;;;;4.24;66.08;99184.66;213858;1277;231677;-77
2022/03/29 03:18:43;;;;;;;20.00;10.10;;;;;;;4.19;66.31;99177.69;213610;1276;140087;-73
2022/03/29 03:23:46;;;;;;;13.10;7.60;;;;;;;4.10;66.49;99174.41;213638;1277;222739;-77
2022/03/29 03:28:49;;;;;;;15.60;9.10;;;;;;;4.02;66.72;99183.76;213033;1277;140323;-69
2022/03/29 03:33:52;;;;;;;15.10;9.10;;;;;;;4.05;67.24;99174.09;213473;1277;142075;-73
2022/03/29 03:38:54;;;;;;;15.80;8.20;;;;;;;4.18;67.36;99177.78;213743;1276;139756;-72
2022/03/29 03:43:56;;;;;;;13.10;8.50;;;;;;;4.29;67.29;99181.14;214474;1276;139492;-72
2022/03/29 03:49:00;;;;;;;16.90;9.40;;;;;;;4.32;67.45;99180.88;213515;1277;139854;-68
2022/03/29 03:54:03;;;;;;;16.10;9.00;;;;;;;4.34;67.48;99187.34;214166;1276;139181;-74
2022/03/29 03:59:05;;;;;;;14.00;9.00;;;;;;;4.37;67.76;99188.18;214024;1276;139708;-74
2022/03/29 04:04:08;;;;;;;16.70;9.90;;;;;;;4.39;67.79;99184.32;214168;1276;140315;-74
2022/03/29 04:09:11;;;;;;;17.00;9.50;;;;;;;4.45;67.98;99171.31;213244;1276;140941;-64
2022/03/29 04:14:13;;;;;;;15.30;8.90;;;;;;;4.49;68.12;99162.77;213767;1276;249520;-69
2022/03/29 04:19:16;;;;;;;16.40;10.00;;;;;;;4.53;67.98;99155.94;214491;1275;139711;-71
2022/03/29 04:24:18;;;;;;;17.60;10.20;;;;;;;4.56;68.05;99152.55;215790;1276;140764;-72
2022/03/29 04:29:21;;;;;;;14.60;9.40;;;;;;;4.60;68.08;99149.20;215168;1276;140942;-72
2022/03/29 04:34:25;;;;;;;16.50;9.10;;;;;;;4.61;67.94;99146.17;215688;1276;140673;-74
2022/03/29 04:39:27;;;;;;;19.10;10.30;;;;;;;4.60;67.88;99152.80;215798;1276;139427;-73
2022/03/29 04:44:30;;;;;;;16.90;9.00;;;;;;;4.57;67.95;99142.73;215357;1276;140437;-73
2022/03/29 04:49:34;;;;;;;17.90;9.40;;;;;;;4.61;67.92;99155.04;214729;1276;139820;-73
2022/03/29 04:54:37;;;;;;;13.10;9.10;;;;;;;4.66;68.16;99159.02;214436;1277;248267;-71
2022/03/29 04:59:39;;;;;;;13.90;11.60;;;;;;;4.71;68.26;99167.25;215039;1276;140546;-71
2022/03/29 05:04:41;;;;;;;18.10;12.60;;;;;;;4.79;68.41;99170.39;214342;1276;141759;-72
2022/03/29 05:09:44;;;;;;;19.40;11.50;;;;;;;4.97;68.57;99164.88;214427;1277;140394;-79
2022/03/29 05:14:47;;;;;;;20.60;12.60;;;;;;;5.13;68.77;99164.71;213923;1276;140511;-70
2022/03/29 05:19:49;;;;;;;17.20;10.10;;;;;;;5.28;68.36;99161.52;213717;1277;140289;-69
2022/03/29 05:24:51;;;;;;;13.70;10.30;;;;;;;5.47;68.34;99158.66;214105;1276;139922;-69
2022/03/29 05:29:54;;;;;;;14.20;8.50;;;;;;;5.58;68.42;99152.16;213868;1276;140339;-70
2022/03/29 05:34:58;;;;;;;16.80;10.40;;;;;;;5.74;68.42;99149.34;213390;1277;141224;-70
2022/03/29 05:40:01;;;;;;;20.90;11.50;;;;;;;5.91;68.21;99164.74;213963;1276;159810;-74
2022/03/29 05:45:04;;;;;;;19.70;10.80;;;;;;;6.03;67.91;99163.98;213537;1276;141718;-71
2022/03/29 05:50:07;;;;;;;22.90;10.70;;;;;;;6.13;67.32;99166.32;213647;1277;142112;-74
2022/03/29 05:55:10;;;;;;;15.80;9.30;;;;;;;6.29;67.46;99177.87;214059;1276;141380;-83
2022/03/29 06:00:13;;;;;;;9.30;6.70;;;;;;;6.61;67.23;99182.96;213657;1276;141322;-80
2022/03/29 06:05:17;;;;;;;9.30;5.90;;;;;;;6.78;67.25;99183.89;213869;1276;140384;-74
2022/03/29 06:10:20;;;;;;;16.70;10.80;;;;;;;6.83;66.63;99188.80;214918;1276;138605;-75
2022/03/29 06:15:22;;;;;;;15.40;10.40;;;;;;;6.78;66.93;99196.80;214731;1276;140187;-72
2022/03/29 06:20:26;;;;;;;13.10;9.30;;;;;;;6.68;66.87;99192.21;214043;1276;140376;-70
2022/03/29 06:25:32;;;;;;;18.70;9.00;;;;;;;6.85;67.01;99194.57;214764;1276;139700;-69
2022/03/29 06:30:34;;;;;;;21.70;11.30;;;;;;;6.85;67.12;99188.69;215197;1274;139898;-67
2022/03/29 06:35:40;;;;;;;19.20;13.50;;;;;;;6.91;67.11;99187.60;215225;1276;140596;-75
2022/03/29 06:40:47;;;;;;;23.30;13.90;;;;;;;7.03;66.89;99192.84;214995;1276;140567;-73
2022/03/29 06:45:50;;;;;;;;;;;;;;;7.05;66.75;99196.08;215830;1276;139628;-71
2022/03/29 06:50:52;;;;;;;27.80;15.20;;;;;;;6.92;66.66;99204.30;216512;1277;125596;-72
2022/03/29 06:55:54;;;;;;;20.70;14.30;;;;;;;6.84;66.95;99202.03;215419;1276;140517;-76
2022/03/29 07:00:57;;;;;;;30.00;16.70;;;;;;;6.81;66.66;99203.61;215490;1276;142201;-73
2022/03/29 07:05:59;;;;;;;24.70;16.00;;;;;;;6.77;66.89;99203.41;214749;1276;139902;-67
2022/03/29 07:11:19;;;;;;;23.00;14.40;;;;;;;6.75;66.94;99201.20;213503;1276;140244;-69
2022/03/29 07:16:22;;;;;;;28.40;16.40;;;;;;;6.69;67.07;99205.86;214070;1277;141427;-73
2022/03/29 07:21:25;;;;;;;30.10;16.10;;;;;;;6.63;67.11;99209.43;214310;1276;140403;-69
2022/03/29 07:26:35;;;;;;;33.00;17.00;;;;;;;6.58;67.19;99206.64;214237;1276;140726;-77
2022/03/29 07:31:38;;;;;;;26.30;15.60;;;;;;;6.61;67.35;99210.19;214077;1276;142047;-75
2022/03/29 07:36:42;;;;;;;28.70;17.40;;;;;;;6.58;67.56;99211.52;214118;1276;140212;-71
2022/03/29 07:41:44;;;;;;;33.00;21.70;;;;;;;6.48;67.71;99215.93;214158;1276;140941;-71
2022/03/29 07:46:47;;;;;;;33.70;20.50;;;;;;;6.40;67.76;99219.58;213805;1276;141648;-75
2022/03/29 07:51:50;;;;;;;34.80;21.60;;;;;;;6.36;67.78;99221.14;213074;1276;142211;-69
2022/03/29 07:56:54;;;;;;;43.60;21.30;;;;;;;6.37;68.16;99218.11;213669;1276;140256;-78
2022/03/29 08:01:56;;;;;;;43.20;21.80;;;;;;;6.37;68.12;99222.11;213450;1276;140346;-74
2022/03/29 08:07:00;;;;;;;40.60;23.10;;;;;;;6.40;68.16;99218.64;212903;1276;141411;-68
2022/03/29 08:12:05;;;;;;;31.30;19.70;;;;;;;6.45;67.91;99221.88;212956;1278;141759;-75
2022/03/29 08:17:09;;;;;;;30.00;18.20;;;;;;;6.48;67.91;99214.85;213410;1276;142512;-72
2022/03/29 08:22:11;;;;;;;38.30;21.60;;;;;;;6.51;68.17;99215.86;213712;1276;152046;-68
2022/03/29 08:27:14;;;;;;;37.70;22.10;;;;;;;6.59;68.03;99221.56;214610;1276;143501;-77
2022/03/29 08:32:16;;;;;;;40.30;24.60;;;;;;;6.70;68.05;99222.73;214142;1276;141038;-79
2022/03/29 08:37:20;;;;;;;33.10;21.00;;;;;;;6.72;68.01;99224.06;213295;1276;140704;-72
2022/03/29 08:42:24;;;;;;;42.20;23.20;;;;;;;6.72;67.45;99223.61;214277;1275;140132;-78
2022/03/29 08:47:27;;;;;;;43.80;24.50;;;;;;;6.63;68.14;99224.27;214003;1276;141027;-76
2022/03/29 08:52:31;;;;;;;44.00;22.00;;;;;;;6.55;67.99;99226.10;213209;1276;141279;-77
2022/03/29 08:57:34;;;;;;;42.50;25.20;;;;;;;6.56;68.16;99224.13;215761;1276;141156;-77
2022/03/29 09:02:39;;;;;;;31.80;20.50;;;;;;;6.64;67.94;99222.78;215180;1276;140063;-74
2022/03/29 09:08:04;;;;;;;40.40;24.10;;;;;;;6.74;67.85;99218.33;215487;1276;143243;-81
2022/03/29 09:13:20;;;;;;;43.80;22.80;;;;;;;6.93;68.14;99211.87;215129;1276;140713;-76
2022/03/29 09:18:24;;;;;;;41.40;22.10;;;;;;;7.24;67.75;99205.61;214678;1276;141015;-83
2022/03/29 09:23:27;;;;;;;35.60;21.20;;;;;;;7.56;67.44;99198.27;214302;1276;140595;-75
2022/03/29 09:28:38;;;;;;;42.40;21.30;;;;;;;7.99;67.11;99194.70;214404;1276;141125;-76
2022/03/29 09:33:41;;;;;;;27.40;18.80;;;;;;;8.38;66.72;99194.02;214136;1276;140083;-83
2022/03/29 09:38:47;;;;;;;34.80;19.90;;;;;;;8.50;65.98;99190.04;214332;1276;140567;-72
2022/03/29 09:44:06;;;;;;;39.20;17.90;;;;;;;8.49;65.32;99187.56;215010;1276;141325;-72
2022/03/29 09:49:08;;;;;;;34.30;18.10;;;;;;;8.75;65.48;99177.98;213784;1276;141347;-72
2022/03/29 09:54:11;;;;;;;51.90;22.60;;;;;;;9.09;64.95;99176.54;213666;1278;139632;-71
2022/03/29 09:59:16;;;;;;;29.00;18.20;;;;;;;9.35;64.55;99178.92;213817;1279;142528;-72
2022/03/29 10:04:20;;;;;;;27.20;17.50;;;;;;;9.62;64.17;99173.34;213909;1276;140007;-73
2022/03/29 10:09:35;;;;;;;25.70;16.00;;;;;;;9.87;63.36;99167.55;213282;1276;139813;-72
2022/03/29 10:14:43;;;;;;;23.80;14.80;;;;;;;10.00;62.66;99171.69;212435;1276;1174676;-72
2022/03/29 10:19:47;;;;;;;20.20;12.50;;;;;;;9.97;62.29;99171.59;213905;1278;141127;-71
2022/03/29 10:24:52;;;;;;;20.60;13.90;;;;;;;9.82;61.56;99169.87;213651;1276;163263;-72
2022/03/29 10:29:54;;;;;;;21.10;14.10;;;;;;;9.57;61.62;99169.64;214134;1276;142229;-72
2022/03/29 10:35:09;;;;;;;24.90;15.20;;;;;;;9.43;61.40;99169.27;215038;1276;141753;-75
2022/03/29 10:40:34;;;;;;;22.30;13.30;;;;;;;9.24;61.30;99170.10;213840;1276;141052;-72
2022/03/29 10:45:38;;;;;;;19.00;11.50;;;;;;;9.14;61.17;99156.31;215067;1276;140591;-75
2022/03/29 10:50:57;;;;;;;21.10;12.20;;;;;;;9.12;61.20;99147.64;215497;1276;139615;-72
2022/03/29 10:56:15;;;;;;;26.50;16.30;;;;;;;9.04;61.10;99147.89;215258;1276;139909;-69
2022/03/29 11:01:18;;;;;;;22.30;13.30;;;;;;;8.93;61.19;99142.80;215532;1276;140370;-72
2022/03/29 11:06:21;;;;;;;25.60;14.20;;;;;;;8.93;61.09;99140.84;214596;1277;139419;-70
2022/03/29 11:11:48;;;;;;;22.20;12.90;;;;;;;8.89;61.05;99134.55;216051;1276;140092;-73
2022/03/29 11:16:51;;;;;;;27.40;16.10;;;;;;;8.83;61.14;99134.77;215010;1276;140804;-76
2022/03/29 11:21:53;;;;;;;19.70;13.00;;;;;;;8.81;61.01;99131.97;215062;1276;141735;-74
2022/03/29 11:26:58;;;;;;;27.00;15.90;;;;;;;8.89;61.10;99129.16;214280;1276;141218;-79
2022/03/29 11:32:04;;;;;;;23.80;15.10;;;;;;;8.90;61.19;99122.42;214545;1276;142008;-75
2022/03/29 11:37:07;;;;;;;25.20;16.00;;;;;;;8.84;61.06;99115.17;214837;1276;142643;-73
2022/03/29 11:42:14;;;;;;;24.50;13.80;;;;;;;8.71;61.06;99112.34;214384;1276;222087;-70
2022/03/29 11:47:17;;;;;;;25.50;15.10;;;;;;;8.62;60.75;99106.73;214131;1276;140594;-69
2022/03/29 11:52:20;;;;;;;488.70;232.50;;;;;;;8.48;61.11;99100.35;213054;1278;140321;-81
2022/03/29 11:57:31;;;;;;;64.90;31.10;;;;;;;8.27;60.88;99098.42;213747;1276;141292;-77
2022/03/29 12:02:41;;;;;;;48.10;22.70;;;;;;;8.10;61.47;99096.16;214382;1277;140569;-75
2022/03/29 12:07:45;;;;;;;30.90;17.30;;;;;;;7.98;61.80;99095.73;213652;1276;139186;-80
2022/03/29 12:12:52;;;;;;;23.20;14.10;;;;;;;7.89;62.11;99092.61;214854;1277;138898;-72
2022/03/29 12:23:27;;;;;;;22.30;15.30;;;;;;;7.83;62.61;99089.02;213941;1276;140663;-71
2022/03/29 12:28:32;;;;;;;30.50;18.50;;;;;;;7.86;62.55;99082.92;214675;1276;140467;-71
2022/03/29 12:33:36;;;;;;;25.60;16.10;;;;;;;7.93;62.97;99074.42;213615;1276;139161;-67
2022/03/29 12:38:50;;;;;;;18.40;12.10;;;;;;;8.01;62.73;99074.73;214116;1277;142120;-71
2022/03/29 12:43:54;;;;;;;33.10;17.90;;;;;;;8.03;63.02;99070.69;213981;1276;140721;-71
2022/03/29 12:48:58;;;;;;;28.10;15.20;;;;;;;7.93;62.88;99065.35;212992;1277;140119;-66
2022/03/29 12:54:07;;;;;;;30.20;16.80;;;;;;;7.84;62.83;99062.83;214283;1277;139740;-72
2022/03/29 12:59:26;;;;;;;31.30;17.00;;;;;;;7.79;62.81;99055.82;215008;1277;140881;-70
2022/03/29 13:04:37;;;;;;;35.20;21.30;;;;;;;7.85;62.86;99054.45;213762;1277;141533;-68
2022/03/29 13:09:58;;;;;;;40.20;21.50;;;;;;;7.91;63.10;99049.08;214078;1277;141074;-70
2022/03/29 13:15:37;;;;;;;36.20;17.40;;;;;;;8.01;63.11;99043.98;214907;1277;141369;-70
2022/03/29 13:20:40;;;;;;;26.60;15.80;;;;;;;8.04;62.92;99038.55;215499;1277;139111;-75
2022/03/29 13:25:43;;;;;;;30.00;16.60;;;;;;;8.00;63.03;99034.90;215552;1277;140371;-74
2022/03/29 13:30:46;;;;;;;38.10;18.40;;;;;;;8.11;63.20;99035.83;215812;1277;140084;-74
2022/03/29 13:35:50;;;;;;;29.00;17.60;;;;;;;8.27;63.07;99029.70;214779;1276;139902;-72
2022/03/29 13:40:53;;;;;;;23.20;15.40;;;;;;;8.19;62.45;99023.83;214438;1276;139918;-74
2022/03/29 13:45:56;;;;;;;33.70;16.60;;;;;;;7.99;62.64;99020.67;215237;1277;140289;-73
2022/03/29 13:51:03;;;;;;;27.40;15.30;;;;;;;7.81;62.36;99016.23;213182;1277;141132;-70
2022/03/29 13:56:06;;;;;;;28.20;15.10;;;;;;;7.69;62.65;99008.76;213122;1277;141765;-70
2022/03/29 14:01:10;;;;;;;39.20;21.00;;;;;;;7.71;63.07;99004.65;213834;1277;141419;-73
2022/03/29 14:06:13;;;;;;;28.30;19.40;;;;;;;7.69;63.37;99004.02;213822;1277;140277;-73
2022/03/29 14:11:16;;;;;;;32.60;17.80;;;;;;;7.66;63.43;99003.11;214057;1277;141324;-68
2022/03/29 14:16:21;;;;;;;29.00;17.60;;;;;;;7.61;62.94;99001.06;213636;1277;139845;-77
2022/03/29 14:21:25;;;;;;;36.40;17.70;;;;;;;7.52;63.37;98994.17;213691;1277;139913;-68
2022/03/29 14:26:30;;;;;;;29.80;17.80;;;;;;;7.45;63.11;98991.33;214391;1277;140136;-71
2022/03/29 14:31:34;;;;;;;32.80;21.40;;;;;;;7.34;63.40;98988.48;213718;1277;139006;-74
2022/03/29 14:36:40;;;;;;;36.60;21.60;;;;;;;7.22;63.60;98987.27;213816;1277;141164;-71
2022/03/29 14:41:47;;;;;;;33.90;20.60;;;;;;;7.16;63.70;98987.60;213905;1277;151733;-72
2022/03/29 14:46:56;;;;;;;29.00;17.60;;;;;;;7.14;63.32;98982.83;213411;1277;141791;-73
2022/03/29 14:52:00;;;;;;;26.60;14.90;;;;;;;7.14;63.27;98979.77;214805;1276;141688;-72
2022/03/29 14:57:05;;;;;;;23.50;13.00;;;;;;;7.09;63.40;98977.27;214020;1276;163529;-67
2022/03/29 15:02:08;;;;;;;31.80;16.60;;;;;;;7.04;63.05;98970.33;214897;1277;140753;-75
2022/03/29 15:07:11;;;;;;;27.00;13.70;;;;;;;7.07;63.21;98968.99;214479;1276;140025;-75
2022/03/29 15:12:13;;;;;;;28.50;14.10;;;;;;;7.05;63.28;98961.80;213236;1276;140803;-72
2022/03/29 15:17:15;;;;;;;23.50;12.50;;;;;;;6.99;63.18;98957.70;216002;1276;140855;-74
2022/03/29 15:22:18;;;;;;;24.40;16.10;;;;;;;6.94;63.26;98958.39;215891;1276;141164;-76
2022/03/29 15:27:23;;;;;;;29.80;16.10;;;;;;;6.92;63.53;98957.82;215389;1276;144008;-76
2022/03/29 15:32:26;;;;;;;34.30;17.30;;;;;;;6.92;64.02;98952.19;215542;1277;141445;-78
2022/03/29 15:37:29;;;;;;;26.00;15.40;;;;;;;6.94;64.22;98949.55;214043;1276;140541;-75
2022/03/29 15:42:32;;;;;;;35.00;18.50;;;;;;;6.91;64.09;98944.21;215711;1277;140000;-75
2022/03/29 15:47:36;;;;;;;24.20;14.10;;;;;;;6.88;64.46;98938.96;215251;1276;140378;-68
2022/03/29 15:52:39;;;;;;;26.60;16.00;;;;;;;6.81;64.65;98931.99;214059;1276;140447;-71
2022/03/29 15:57:43;;;;;;;28.60;17.40;;;;;;;6.74;64.71;98927.67;214999;1276;139953;-70
2022/03/29 16:02:46;;;;;;;27.60;14.80;;;;;;;6.70;65.07;98932.13;213694;1276;140882;-74
2022/03/29 16:07:50;;;;;;;17.10;11.90;;;;;;;6.71;65.07;98930.14;214014;1276;139640;-71
2022/03/29 16:12:53;;;;;;;30.80;17.20;;;;;;;6.68;65.38;98930.60;214439;1276;141002;-69
2022/03/29 16:17:56;;;;;;;29.60;14.40;;;;;;;6.63;65.28;98924.60;213892;1277;139385;-69
2022/03/29 16:22:59;;;;;;;26.60;16.20;;;;;;;6.62;65.42;98928.53;214890;1277;140057;-74
2022/03/29 16:28:02;;;;;;;29.60;15.30;;;;;;;6.62;65.45;98925.52;213564;1276;141498;-74
2022/03/29 16:33:06;;;;;;;28.60;17.90;;;;;;;6.60;65.64;98923.09;213902;1277;140743;-72
2022/03/29 16:38:08;;;;;;;21.20;13.40;;;;;;;6.59;65.87;98920.31;214312;1276;140392;-73
2022/03/29 16:43:12;;;;;;;25.70;14.60;;;;;;;6.58;65.84;98922.02;214721;1276;139876;-77
2022/03/29 16:48:15;;;;;;;23.60;13.10;;;;;;;6.57;66.04;98926.52;213332;1277;139719;-77
2022/03/29 16:53:17;;;;;;;20.00;12.70;;;;;;;6.52;65.82;98925.96;214860;1276;139936;-79
2022/03/29 16:58:20;;;;;;;23.80;15.90;;;;;;;6.46;66.14;98920.63;213404;1276;139091;-70
2022/03/29 17:03:26;;;;;;;23.00;13.00;;;;;;;6.42;66.22;98923.02;215050;1277;140098;-72
2022/03/29 17:08:30;;;;;;;26.70;16.40;;;;;;;6.34;66.25;98924.41;214795;1276;140349;-73
2022/03/29 17:13:33;;;;;;;23.90;13.70;;;;;;;6.28;66.16;98921.73;214494;1276;139775;-74
2022/03/29 17:18:39;;;;;;;27.60;16.40;;;;;;;6.22;66.42;98918.27;215442;1276;140407;-72
2022/03/29 17:23:50;;;;;;;32.40;16.00;;;;;;;6.15;66.46;98915.67;214645;1276;140530;-73
2022/03/29 17:28:55;;;;;;;31.30;16.40;;;;;;;6.08;66.70;98915.48;215764;1276;141162;-74
2022/03/29 17:34:04;;;;;;;27.40;16.00;;;;;;;6.10;67.32;98911.39;215213;1276;150941;-72
2022/03/29 17:39:07;;;;;;;25.10;16.10;;;;;;;6.13;67.05;98912.33;215793;1276;141123;-74
2022/03/29 17:44:11;;;;;;;26.70;16.30;;;;;;;6.15;67.25;98910.05;213478;1277;141937;-72
2022/03/29 17:49:15;;;;;;;21.90;13.80;;;;;;;6.14;67.21;98904.70;214763;1276;141533;-74
2022/03/29 17:54:18;;;;;;;29.30;16.20;;;;;;;6.14;67.64;98905.52;214125;1276;140535;-72
2022/03/29 17:59:21;;;;;;;29.30;17.90;;;;;;;6.11;67.77;98912.45;213318;1276;140002;-72
2022/03/29 18:04:24;;;;;;;31.70;18.60;;;;;;;5.97;67.32;98905.48;214177;1277;149685;-72
2022/03/29 18:09:29;;;;;;;31.00;17.60;;;;;;;5.83;67.57;98908.47;213119;1277;140493;-71
2022/03/29 18:14:33;;;;;;;28.20;17.60;;;;;;;5.66;67.62;98905.63;213112;1276;140770;-71
2022/03/29 18:19:37;;;;;;;29.20;19.80;;;;;;;5.51;67.49;98907.12;214338;1276;141054;-72
2022/03/29 18:24:40;;;;;;;32.20;17.70;;;;;;;5.28;67.61;98905.10;213919;1276;141371;-71
2022/03/29 18:29:44;;;;;;;32.40;17.20;;;;;;;5.09;67.55;98907.67;213505;1276;142572;-70
2022/03/29 18:34:47;;;;;;;29.20;18.10;;;;;;;4.96;68.07;98900.13;213870;1276;142848;-71
2022/03/29 18:40:10;;;;;;;34.10;20.00;;;;;;;4.79;68.15;98902.38;213250;1276;206336;-70
2022/03/29 18:45:15;;;;;;;39.70;20.40;;;;;;;4.62;68.40;98905.85;213496;1276;142825;-70
2022/03/29 18:50:18;;;;;;;34.90;22.40;;;;;;;4.41;68.45;98910.73;213123;1276;142881;-69
2022/03/29 18:55:22;;;;;;;42.40;20.80;;;;;;;4.21;68.46;98913.00;213221;1276;141356;-71
2022/03/29 19:00:26;;;;;;;37.60;21.60;;;;;;;3.98;68.41;98916.79;213866;1276;141829;-70
2022/03/29 19:05:31;;;;;;;39.00;21.30;;;;;;;3.72;68.58;98916.16;214029;1276;140130;-71
2022/03/29 19:10:34;;;;;;;38.10;20.40;;;;;;;3.50;68.72;98916.05;214711;1277;140437;-70
2022/03/29 19:15:43;;;;;;;40.40;20.40;;;;;;;3.34;68.95;98914.73;213825;1275;142027;-68
2022/03/29 19:20:48;;;;;;;37.50;20.40;;;;;;;3.23;69.32;98916.08;214273;1277;139376;-70
2022/03/29 19:25:52;;;;;;;28.90;17.80;;;;;;;3.09;69.10;98910.39;214545;1277;140746;-69
2022/03/29 19:30:56;;;;;;;35.70;21.30;;;;;;;2.88;69.53;98902.42;215593;1276;142987;-70
2022/03/29 19:36:00;;;;;;;34.90;19.50;;;;;;;2.79;69.99;98903.31;213752;1276;140713;-69
2022/03/29 19:41:04;;;;;;;35.80;20.60;;;;;;;2.74;69.63;98898.92;215680;1277;142144;-72
2022/03/29 19:46:08;;;;;;;38.10;20.90;;;;;;;2.72;70.05;98896.80;215256;1276;141681;-71
2022/03/29 19:51:12;;;;;;;41.80;20.30;;;;;;;2.67;70.05;98900.96;214934;1276;141701;-70
2022/03/29 19:56:15;;;;;;;49.20;22.80;;;;;;;2.54;70.08;98895.24;215345;1277;139929;-72
2022/03/29 20:01:19;;;;;;;40.20;23.10;;;;;;;2.44;70.06;98891.42;215192;1277;140917;-70
2022/03/29 20:06:24;;;;;;;48.40;23.70;;;;;;;2.38;70.27;98886.73;213066;1278;140891;-69
2022/03/29 20:11:33;;;;;;;43.70;22.60;;;;;;;2.31;70.32;98889.40;214295;1277;151291;-70
2022/03/29 20:16:36;;;;;;;47.20;24.10;;;;;;;2.23;70.60;98885.95;214238;1277;141423;-68
2022/03/29 20:21:39;;;;;;;41.70;25.10;;;;;;;2.19;70.62;98876.80;213124;1276;141873;-69
2022/03/29 20:26:43;;;;;;;49.80;25.10;;;;;;;2.06;70.44;98872.77;213908;1277;141222;-69
2022/03/29 20:31:49;;;;;;;44.30;26.80;;;;;;;1.98;70.84;98875.90;212845;1276;139898;-67
2022/03/29 20:36:53;;;;;;;51.20;25.20;;;;;;;1.86;70.94;98870.70;213220;1276;143094;-69
2022/03/29 20:41:57;;;;;;;52.10;29.20;;;;;;;1.77;71.42;98871.98;213420;1276;140124;-69
2022/03/29 20:46:59;;;;;;;59.40;28.30;;;;;;;1.75;71.68;98866.54;213369;1277;141278;-67
2022/03/29 20:52:05;;;;;;;54.80;30.10;;;;;;;1.74;71.91;98863.21;213544;1276;141455;-69
2022/03/29 20:57:08;;;;;;;52.70;27.30;;;;;;;1.75;71.92;98861.23;213244;1275;140951;-66
2022/03/29 21:02:10;;;;;;;52.70;28.00;;;;;;;1.76;72.43;98854.25;213064;1277;142738;-68
2022/03/29 21:07:12;;;;;;;58.00;29.30;;;;;;;1.75;72.50;98849.52;213368;1277;142805;-69
2022/03/29 21:12:16;;;;;;;55.90;30.90;;;;;;;1.77;72.56;98847.73;213566;1277;142304;-69
2022/03/29 21:17:19;;;;;;;56.00;32.10;;;;;;;1.75;72.55;98848.59;213356;1276;141354;-69
2022/03/29 21:22:22;;;;;;;57.60;30.00;;;;;;;1.71;72.76;98848.94;214536;1276;141085;-69
2022/03/29 21:27:25;;;;;;;54.00;27.80;;;;;;;1.65;72.68;98845.45;214970;1276;139951;-71
2022/03/29 21:32:29;;;;;;;55.30;29.70;;;;;;;1.59;72.40;98850.56;213430;1277;141187;-69
2022/03/29 21:37:32;;;;;;;42.50;26.60;;;;;;;1.50;72.23;98847.36;214421;1277;141895;-69
2022/03/29 21:42:35;;;;;;;47.10;28.60;;;;;;;1.37;72.25;98847.92;214995;1277;140186;-70
2022/03/29 21:47:44;;;;;;;49.10;27.50;;;;;;;1.28;72.23;98847.39;215965;1276;140299;-69
2022/03/29 21:52:47;;;;;;;51.40;26.00;;;;;;;1.16;72.20;98848.05;215020;1276;140812;-70
2022/03/29 21:57:50;;;;;;;50.60;27.40;;;;;;;1.03;72.43;98842.85;215584;1277;141155;-70
2022/03/29 22:02:53;;;;;;;52.90;29.20;;;;;;;0.97;72.25;98838.73;215735;1276;139792;-70
2022/03/29 22:07:56;;;;;;;53.50;30.80;;;;;;;0.94;72.57;98844.75;214779;1276;140286;-69
2022/03/29 22:12:59;;;;;;;49.30;26.80;;;;;;;0.92;72.77;98844.83;215505;1276;140225;-68
2022/03/29 22:18:03;;;;;;;55.20;28.20;;;;;;;0.94;72.99;98849.91;214192;1276;1108256;-68
2022/03/29 22:23:06;;;;;;;56.80;28.80;;;;;;;1.04;73.25;98846.61;214391;1277;140260;-67
2022/03/29 22:28:09;;;;;;;61.60;33.40;;;;;;;1.11;73.79;98846.05;214962;1276;141302;-68
2022/03/29 22:33:14;;;;;;;56.60;28.90;;;;;;;1.15;73.84;98846.80;214324;1277;140804;-67
2022/03/29 22:38:17;;;;;;;62.30;31.30;;;;;;;1.19;73.85;98845.48;214167;1276;141461;-70
2022/03/29 22:43:20;;;;;;;56.90;27.70;;;;;;;1.26;74.10;98841.45;214261;1276;141996;-69
2022/03/29 22:48:22;;;;;;;53.40;30.40;;;;;;;1.26;74.17;98833.98;213159;1277;141751;-68
2022/03/29 22:53:26;;;;;;;71.30;37.70;;;;;;;1.15;73.81;98830.00;213197;1277;141156;-68
2022/03/29 22:58:28;;;;;;;63.50;32.40;;;;;;;1.09;74.01;98824.27;213627;1276;140996;-68
2022/03/29 23:03:31;;;;;;;73.70;37.40;;;;;;;0.92;73.22;98822.46;213212;1276;140890;-67
2022/03/29 23:08:40;;;;;;;71.20;33.70;;;;;;;0.74;73.38;98818.09;213441;1276;140051;-67
2022/03/29 23:13:43;;;;;;;65.90;35.20;;;;;;;0.66;73.60;98820.47;214540;1276;140447;-69
2022/03/29 23:18:46;;;;;;;78.50;34.30;;;;;;;0.53;73.39;98815.13;213830;1276;140030;-66